Time;durP1;ratioP1;P1;durP2;ratioP2;P2;SDS_P1;SDS_P2;PMS_P1;PMS_P2;Temp;Humidity;BMP_temperature;BMP_pressure;BME280_temperature;BME280_humidity;BME280_pressure;Samples;Min_cycle;Max_cycle;Signal;HPM_P1;HPM_P2
2022/06/05 00:01:36;;;;;;;;;13.00;12.67;;;;;20.99;66.37;100918.16;5119299;27;45400;-69
2022/06/05 00:04:08;;;;;;;;;11.33;11.33;;;;;20.96;66.12;100915.50;5125114;27;45330;-68
2022/06/05 00:06:33;;;;;;;;;13.67;12.00;;;;;20.98;65.69;100903.66;5112400;27;45258;-69
2022/06/05 00:09:04;;;;;;;;;10.67;9.67;;;;;20.81;65.88;100870.44;5117722;27;45177;-69
2022/06/05 00:11:44;;;;;;;;;18.67;13.67;;;;;20.94;66.00;100910.06;5124060;27;45632;-70
2022/06/05 00:14:10;;;;;;;;;16.67;12.00;;;;;20.96;66.00;100926.34;5123370;27;45165;-69
2022/06/05 00:16:36;;;;;;;;;13.00;9.00;;;;;20.95;65.48;100916.41;5119773;27;45194;-69
2022/06/05 00:19:03;;;;;;;;;11.33;9.67;;;;;20.93;65.79;100915.53;5125732;27;45312;-70
2022/06/05 00:21:28;;;;;;;;;12.00;10.33;;;;;20.94;65.53;100911.91;5115456;27;46895;-69
2022/06/05 00:23:54;;;;;;;;;15.00;13.00;;;;;20.88;65.73;100896.56;5120282;27;46382;-69
2022/06/05 00:26:38;;;;;;;;;13.33;11.67;;;;;20.93;65.84;100912.81;5120916;27;45611;-68
2022/06/05 00:29:13;;;;;;;;;12.33;11.33;;;;;20.92;65.91;100903.78;5116185;27;44934;-70
2022/06/05 00:31:49;;;;;;;;;11.00;11.00;;;;;20.89;66.13;100902.91;5126233;27;45511;-67
2022/06/05 00:34:15;;;;;;;;;11.00;9.67;;;;;20.88;65.98;100903.84;5114799;27;45067;-69
2022/06/05 00:36:58;;;;;;;;;12.67;11.67;;;;;20.86;65.96;100898.41;5116215;27;44973;-69
2022/06/05 00:39:59;;;;;;;;;16.00;14.00;;;;;20.85;65.96;100895.72;5117718;27;45145;-69
2022/06/05 00:42:29;;;;;;;;;12.67;11.67;;;;;20.84;66.34;100893.91;5036525;28;45199;-69
2022/06/05 00:45:01;;;;;;;;;15.67;13.00;;;;;20.61;66.28;100860.69;5107366;27;45119;-68
2022/06/05 00:47:30;;;;;;;;;12.00;12.00;;;;;20.76;66.31;100873.19;5114801;27;45025;-70
2022/06/05 00:49:59;;;;;;;;;14.00;13.33;;;;;20.76;66.57;100873.19;5114992;27;44997;-70
2022/06/05 00:52:29;;;;;;;;;12.67;11.33;;;;;20.75;66.60;100856.94;5114870;27;46269;-69
2022/06/05 00:54:54;;;;;;;;;13.67;13.67;;;;;20.72;66.60;100863.31;5115920;27;45537;-69
2022/06/05 00:57:20;;;;;;;;;18.67;14.67;;;;;20.64;66.82;100865.25;5115427;27;45332;-68
2022/06/05 00:59:48;;;;;;;;;14.00;14.00;;;;;20.62;67.02;100875.16;5114530;27;45131;-71
2022/06/05 01:02:14;;;;;;;;;14.67;14.67;;;;;20.63;66.99;100868.84;5113841;27;45255;-70
2022/06/05 01:04:43;;;;;;;;;15.33;11.67;;;;;20.64;67.22;100876.09;5114538;27;45064;-69
2022/06/05 01:07:09;;;;;;;;;15.67;13.33;;;;;20.62;67.33;100878.78;5114300;27;45146;-70
2022/06/05 01:09:36;;;;;;;;;16.33;15.67;;;;;20.51;67.46;100863.53;5109537;27;45021;-71
2022/06/05 01:12:40;;;;;;;;;15.33;12.67;;;;;20.10;67.39;100802.56;5113086;27;45954;-70
2022/06/05 01:15:21;;;;;;;;;18.67;15.33;;;;;20.54;67.72;100875.28;5107519;27;45470;-70
2022/06/05 01:18:02;;;;;;;;;17.67;15.67;;;;;20.55;67.74;100860.78;5113526;27;45132;-70
2022/06/05 01:20:41;;;;;;;;;18.33;17.00;;;;;20.39;67.93;100816.66;5119339;27;45232;-68
2022/06/05 01:23:34;;;;;;;;;15.67;14.67;;;;;20.58;67.80;100840.84;5119256;27;45791;-70
2022/06/05 01:26:05;;;;;;;;;18.00;15.00;;;;;20.61;67.51;100827.25;5131794;27;45226;-68
2022/06/05 01:28:34;;;;;;;;;22.50;20.25;;;;;20.62;67.49;100823.59;5115927;27;44884;-69
2022/06/05 01:31:08;;;;;;;;;22.67;17.67;;;;;20.63;67.59;100830.84;5116762;27;45155;-69
2022/06/05 01:33:40;;;;;;;;;23.75;20.25;;;;;20.65;67.31;100810.00;5112702;27;46890;-69
2022/06/05 01:36:06;;;;;;;;;21.67;17.67;;;;;20.69;67.78;100805.41;5119078;27;44871;-68
2022/06/05 01:38:41;;;;;;;;;17.33;16.33;;;;;20.68;67.37;100796.38;5096910;27;45037;-70
2022/06/05 01:41:15;;;;;;;;;17.00;15.67;;;;;20.55;67.13;100770.31;5117900;27;45013;-68
2022/06/05 01:43:46;;;;;;;;;15.67;15.67;;;;;20.69;67.38;100795.47;5115151;27;45276;-68
2022/06/05 01:46:19;;;;;;;;;19.67;17.33;;;;;20.71;67.06;100784.59;5122139;27;44961;-70
2022/06/05 01:48:57;;;;;;;;;17.00;15.33;;;;;20.71;67.49;100782.78;5131058;27;45182;-69
2022/06/05 01:51:33;;;;;;;;;21.33;15.67;;;;;20.72;67.19;100771.00;5134265;27;45041;-70
2022/06/05 01:54:06;;;;;;;;;13.33;12.33;;;;;20.74;67.26;100769.16;5127371;27;45604;-69
2022/06/05 01:56:42;;;;;;;;;15.00;14.00;;;;;20.69;66.97;100770.13;5134368;27;45114;-70
2022/06/05 01:59:21;;;;;;;;;14.67;13.33;;;;;20.70;67.00;100770.09;5115525;27;45162;-68
2022/06/05 02:01:53;;;;;;;;;20.00;16.33;;;;;20.67;67.29;100775.56;5124841;27;44948;-71
2022/06/05 02:04:24;;;;;;;;;19.67;18.33;;;;;20.58;67.59;100768.44;5128177;27;45237;-68
2022/06/05 02:07:16;;;;;;;;;21.50;18.25;;;;;20.52;67.98;100756.78;5133537;27;45390;-69
2022/06/05 02:09:49;;;;;;;;;18.25;17.25;;;;;20.50;67.85;100758.63;5115698;27;45036;-69
2022/06/05 02:12:15;;;;;;;;;26.25;24.25;;;;;20.27;68.43;100727.28;5129938;27;45038;-69
2022/06/05 02:14:42;;;;;;;;;26.75;22.50;;;;;20.37;68.63;100744.34;5127890;27;45580;-69
2022/06/05 02:17:09;;;;;;;;;19.67;19.67;;;;;20.33;68.73;100739.88;5124987;27;45111;-70
2022/06/05 02:19:35;;;;;;;;;20.00;18.67;;;;;20.30;68.69;100738.09;5097006;27;45159;-69
2022/06/05 02:22:07;;;;;;;;;19.50;19.50;;;;;19.95;68.82;100676.22;5113455;27;45249;-71
2022/06/05 02:24:32;;;;;;;;;21.00;20.33;;;;;20.25;68.82;100727.28;5122932;27;45593;-71
2022/06/05 02:27:01;;;;;;;;;22.00;17.33;;;;;20.32;68.82;100735.34;5120654;27;45027;-69
2022/06/05 02:29:26;;;;;;;;;21.67;21.33;;;;;20.27;69.22;100737.25;5131192;27;45186;-70
2022/06/05 02:32:07;;;;;;;;;23.67;21.33;;;;;20.24;69.16;100728.25;5120999;27;45159;-69
2022/06/05 02:34:44;;;;;;;;;25.67;19.67;;;;;20.23;69.40;100737.28;5116334;27;46273;-70
2022/06/05 02:37:47;;;;;;;;;24.67;19.00;;;;;20.19;69.46;100740.06;5121649;27;45162;-69
2022/06/05 02:40:38;;;;;;;;;22.33;19.33;;;;;20.14;69.32;100731.97;5120725;27;44889;-70
2022/06/05 02:43:12;;;;;;;;;23.00;19.67;;;;;20.15;69.45;100724.75;5122773;27;45189;-68
2022/06/05 02:45:51;;;;;;;;;26.00;19.33;;;;;19.92;69.44;100674.41;5115917;27;45281;-69
2022/06/05 02:48:29;;;;;;;;;17.00;16.33;;;;;20.16;69.35;100711.16;5122312;27;45421;-69
2022/06/05 02:51:05;;;;;;;;;17.67;14.67;;;;;20.17;69.11;100714.78;5116402;27;45118;-69
2022/06/05 02:53:53;;;;;;;;;13.00;11.67;;;;;20.18;69.00;100709.31;5116261;27;45052;-69
2022/06/05 02:56:20;;;;;;;;;14.00;13.00;;;;;20.23;68.60;100711.97;5132841;27;46545;-69
2022/06/05 02:58:47;;;;;;;;;14.00;11.67;;;;;20.23;68.35;100718.28;5121390;27;44985;-68
2022/06/05 03:04:11;;;;;;;;;16.00;16.00;;;;;19.99;68.64;100692.38;5083408;27;45117;-70
2022/06/05 03:06:39;;;;;;;;;20.33;17.33;;;;;20.07;68.89;100717.59;5122498;27;45640;-69
2022/06/05 03:09:05;;;;;;;;;14.67;14.67;;;;;20.07;69.15;100716.72;5130862;27;45027;-68
2022/06/05 03:11:30;;;;;;;;;26.00;13.00;;;;;20.02;69.32;100714.06;5136734;27;45121;-69
2022/06/05 03:13:59;;;;;;;;;15.67;14.33;;;;;20.00;69.04;100718.59;5120373;27;44966;-69
2022/06/05 03:16:25;;;;;;;;;14.00;14.00;;;;;19.98;69.58;100724.94;5121284;27;45783;-68
2022/06/05 03:18:51;;;;;;;;;12.33;11.33;;;;;19.95;69.76;100734.03;5128199;27;45213;-70
2022/06/05 03:21:17;;;;;;;;;12.33;12.33;;;;;19.91;69.57;100740.41;5125546;27;45177;-70
2022/06/05 03:23:42;;;;;;;;;13.33;13.33;;;;;19.91;69.74;100739.50;5118498;27;45870;-69
2022/06/05 03:26:11;;;;;;;;;15.67;13.33;;;;;19.81;69.73;100736.91;5118079;27;45156;-69
2022/06/05 03:28:39;;;;;;;;;14.67;14.00;;;;;19.72;69.81;100734.28;5117283;27;45173;-68
2022/06/05 03:31:08;;;;;;;;;12.33;12.33;;;;;19.52;69.72;100707.41;5120093;27;45056;-70
2022/06/05 03:33:36;;;;;;;;;17.33;15.00;;;;;19.62;70.03;100729.88;5127363;27;45069;-68
2022/06/05 03:36:08;;;;;;;;;13.00;11.67;;;;;19.55;69.94;100733.56;5113679;27;45496;-68
2022/06/05 03:38:33;;;;;;;;;14.33;13.00;;;;;19.51;70.22;100735.41;5123029;27;45166;-69
2022/06/05 03:40:58;;;;;;;;;9.33;9.33;;;;;19.47;70.07;100734.56;5114440;27;45553;-69
2022/06/05 03:43:24;;;;;;;;;14.33;11.33;;;;;19.46;70.36;100742.69;5129725;27;45090;-69
2022/06/05 03:45:49;;;;;;;;;19.00;15.33;;;;;19.43;70.27;100745.44;5123803;27;48113;-69
2022/06/05 03:48:14;;;;;;;;;12.67;9.33;;;;;19.37;70.42;100740.06;5115339;27;45441;-69
2022/06/05 03:50:41;;;;;;;;;13.00;12.67;;;;;19.10;70.39;100699.69;5116125;27;45009;-69
2022/06/05 03:53:07;;;;;;;;;15.33;15.33;;;;;19.52;69.94;100746.25;5111744;27;45133;-69
2022/06/05 03:55:32;;;;;;;;;10.33;10.33;;;;;19.52;69.75;100767.03;5114615;27;45206;-68
2022/06/05 03:57:58;;;;;;;;;16.33;12.00;;;;;19.10;69.71;100705.09;5123747;27;45106;-69
2022/06/05 04:00:23;;;;;;;;;13.00;10.33;;;;;19.54;69.60;100773.31;5115206;27;44981;-68
2022/06/05 04:02:49;;;;;;;;;9.33;6.67;;;;;19.48;69.63;100771.56;5118297;27;45072;-68
2022/06/05 04:05:19;;;;;;;;;14.00;11.67;;;;;19.58;69.49;100769.66;5122878;27;46670;-68
2022/06/05 04:07:44;;;;;;;;;16.00;12.67;;;;;19.60;69.32;100775.97;5123733;27;45186;-69
2022/06/05 04:10:16;;;;;;;;;10.00;10.00;;;;;19.56;69.36;100768.78;5120937;27;45032;-68
2022/06/05 04:12:41;;;;;;;;;8.33;7.00;;;;;19.64;69.36;100780.44;5109033;27;45126;-69
2022/06/05 04:15:07;;;;;;;;;10.33;9.33;;;;;19.23;69.05;100716.72;5117532;27;45580;-69
2022/06/05 04:17:34;;;;;;;;;16.00;8.67;;;;;19.69;69.32;100797.53;5120185;27;45285;-70
2022/06/05 04:19:59;;;;;;;;;10.00;8.67;;;;;19.73;68.72;100801.13;5114984;27;45001;-68
2022/06/05 04:22:24;;;;;;;;;9.33;9.00;;;;;19.61;68.78;100771.44;5120610;27;45136;-68
2022/06/05 04:24:50;;;;;;;;;9.33;9.33;;;;;19.80;68.51;100799.28;5134893;27;51800;-68
2022/06/05 04:27:15;;;;;;;;;9.33;9.00;;;;;19.78;68.56;100807.44;5134067;27;45112;-70
2022/06/05 04:29:41;;;;;;;;;9.33;6.67;;;;;19.54;68.21;100776.03;5115540;27;45233;-70
2022/06/05 04:32:06;;;;;;;;;12.00;11.00;;;;;19.81;68.48;100815.53;5117063;27;45163;-70
2022/06/05 04:34:32;;;;;;;;;11.00;8.00;;;;;19.75;68.06;100803.81;5127972;27;45670;-69
2022/06/05 04:36:57;;;;;;;;;10.00;10.00;;;;;19.88;68.18;100821.78;5120966;27;45187;-69
2022/06/05 04:39:22;;;;;;;;;7.00;7.00;;;;;19.56;67.75;100760.66;5119529;27;45905;-69
2022/06/05 04:41:48;;;;;;;;;10.67;10.67;;;;;19.87;67.68;100820.00;5116893;27;45431;-69
2022/06/05 04:44:16;;;;;;;;;14.33;12.33;;;;;19.94;67.76;100831.69;5112811;27;46006;-69
2022/06/05 04:46:42;;;;;;;;;10.00;7.50;;;;;19.98;67.64;100837.06;5120023;27;45224;-68
2022/06/05 04:49:08;;;;;;;;;7.33;7.33;;;;;20.00;67.41;100839.75;5121580;27;44994;-69
2022/06/05 04:51:36;;;;;;;;;9.33;9.33;;;;;20.04;67.22;100845.09;5114316;27;44952;-71
2022/06/05 04:54:03;;;;;;;;;11.67;8.67;;;;;20.06;67.35;100845.09;5117304;27;45150;-69
2022/06/05 04:56:30;;;;;;;;;7.00;7.00;;;;;20.11;67.01;100848.63;5122523;27;44924;-69
2022/06/05 04:58:56;;;;;;;;;10.33;8.33;;;;;19.96;66.99;100821.69;5117918;27;45348;-71
2022/06/05 05:01:33;;;;;;;;;9.33;7.00;;;;;20.20;67.16;100851.25;5114443;27;44901;-71
2022/06/05 05:04:01;;;;;;;;;9.67;9.33;;;;;20.26;66.78;100850.31;5116801;27;45559;-70
2022/06/05 05:06:28;;;;;;;;;10.00;9.00;;;;;20.31;66.20;100853.84;5115211;27;45192;-70
2022/06/05 05:08:53;;;;;;;;;8.67;7.33;;;;;20.33;66.35;100852.00;5115009;27;45569;-69
2022/06/05 05:11:20;;;;;;;;;11.00;11.00;;;;;20.32;66.53;100850.22;5123648;27;45095;-69
2022/06/05 05:13:45;;;;;;;;;8.33;7.67;;;;;20.35;66.29;100846.56;5120864;27;46210;-66
2022/06/05 05:16:11;;;;;;;;;9.67;8.00;;;;;20.38;66.22;100846.53;5118493;27;45516;-68
2022/06/05 05:18:37;;;;;;;;;9.00;9.00;;;;;20.39;66.41;100837.47;5115129;27;45080;-69
2022/06/05 05:21:08;;;;;;;;;9.33;9.33;;;;;20.40;66.41;100833.84;5118950;27;45106;-68
2022/06/05 05:23:34;;;;;;;;;9.33;5.67;;;;;20.51;65.71;100850.88;5111796;27;46024;-69
2022/06/05 05:26:12;;;;;;;;;7.33;4.67;;;;;20.53;65.77;100838.19;5121774;27;44981;-69
2022/06/05 05:28:38;;;;;;;;;11.67;9.67;;;;;20.49;65.73;100828.31;5117856;27;45184;-69
2022/06/05 05:31:14;;;;;;;;;9.67;9.67;;;;;20.54;65.60;100836.38;5113271;27;45186;-71
2022/06/05 05:33:40;;;;;;;;;10.67;7.67;;;;;20.48;65.75;100823.78;5112685;27;45203;-71
2022/06/05 05:36:07;;;;;;;;;8.33;8.33;;;;;20.53;65.57;100830.03;5111076;27;45117;-70
2022/06/05 05:38:32;;;;;;;;;18.33;15.00;;;;;20.60;66.73;100848.03;5112985;27;45162;-71
2022/06/05 05:43:41;;;;;;;;;8.00;8.00;;;;;20.47;65.83;100838.25;5113630;27;45623;-70
2022/06/05 05:46:09;;;;;;;;;11.00;9.67;;;;;20.60;65.81;100850.75;5115930;27;44910;-69
2022/06/05 05:48:35;;;;;;;;;11.33;11.33;;;;;20.61;66.15;100848.97;5111872;27;45124;-68
2022/06/05 05:51:02;;;;;;;;;9.67;8.33;;;;;20.64;65.80;100851.66;5119624;27;44970;-70
2022/06/05 05:53:27;;;;;;;;;12.67;9.00;;;;;20.61;65.82;100844.41;5105338;27;45641;-70
2022/06/05 05:55:53;;;;;;;;;17.33;10.33;;;;;20.66;65.64;100847.09;5121298;27;45676;-70
2022/06/05 05:58:18;;;;;;;;;9.67;9.33;;;;;20.68;65.41;100853.41;5117552;27;45139;-69
2022/06/05 06:00:43;;;;;;;;;12.67;9.33;;;;;20.60;65.77;100836.28;5114310;27;44926;-71
2022/06/05 06:03:09;;;;;;;;;12.00;10.67;;;;;20.34;65.60;100777.84;5114790;27;45760;-69
2022/06/05 06:05:34;;;;;;;;;13.67;11.33;;;;;20.41;65.53;100765.09;5116821;27;45203;-69
2022/06/05 06:07:59;;;;;;;;;12.67;11.00;;;;;20.65;65.39;100801.84;5121941;27;44983;-70
2022/06/05 06:10:25;;;;;;;;;13.33;12.00;;;;;20.87;65.56;100818.75;5111996;27;45385;-69
2022/06/05 06:12:50;;;;;;;;;11.33;11.00;;;;;20.96;64.60;100824.03;5113896;27;45129;-69
2022/06/05 06:15:15;;;;;;;;;12.67;12.67;;;;;21.06;64.91;100830.22;5117847;27;45110;-70
2022/06/05 06:17:41;;;;;;;;;13.67;10.00;;;;;21.11;64.74;100832.88;5121529;27;45086;-69
2022/06/05 06:20:07;;;;;;;;;15.00;13.33;;;;;20.92;64.84;100800.56;5121731;27;45138;-69
2022/06/05 06:22:34;;;;;;;;;11.67;10.67;;;;;21.10;64.86;100828.34;5115550;27;45070;-70
2022/06/05 06:24:59;;;;;;;;;14.00;13.33;;;;;21.06;65.08;100826.63;5112384;27;45094;-69
2022/06/05 06:27:27;;;;;;;;;14.33;12.67;;;;;21.06;64.98;100821.19;5113118;27;45238;-69
2022/06/05 06:29:52;;;;;;;;;13.33;12.67;;;;;20.98;64.93;100808.59;5128752;27;44926;-70
2022/06/05 06:32:18;;;;;;;;;11.33;11.33;;;;;21.05;65.00;100823.00;5121015;27;45547;-71
2022/06/05 06:34:43;;;;;;;;;12.33;12.33;;;;;21.08;65.10;100825.66;5124299;27;44967;-70
2022/06/05 06:37:08;;;;;;;;;13.67;9.33;;;;;21.07;65.25;100815.72;5113901;27;44996;-69
2022/06/05 06:39:34;;;;;;;;;13.00;11.33;;;;;21.04;65.19;100823.91;5114069;27;45273;-70
2022/06/05 06:41:59;;;;;;;;;13.00;11.67;;;;;20.77;65.46;100760.97;5124235;27;45669;-71
2022/06/05 06:44:25;;;;;;;;;12.00;11.33;;;;;21.17;64.90;100816.47;5118145;27;45949;-70
2022/06/05 06:46:51;;;;;;;;;12.67;9.33;;;;;21.24;64.92;100811.84;5115072;27;45202;-70
2022/06/05 06:49:16;;;;;;;;;11.67;10.00;;;;;21.30;64.38;100812.63;5120950;27;45186;-70
2022/06/05 06:51:42;;;;;;;;;17.00;14.33;;;;;21.34;64.64;100808.91;5119946;27;46056;-70
2022/06/05 06:54:08;;;;;;;;;5.67;5.67;;;;;21.38;64.60;100803.44;5118321;27;45151;-72
2022/06/05 06:56:35;;;;;;;;;10.00;9.00;;;;;21.43;64.46;100807.88;5119526;27;44999;-69
2022/06/05 06:59:01;;;;;;;;;15.67;10.67;;;;;21.41;64.15;100777.09;5118001;27;45092;-68
2022/06/05 07:01:27;;;;;;;;;12.67;9.67;;;;;21.48;64.05;100786.06;5117806;27;45341;-68
2022/06/05 07:03:53;;;;;;;;;10.33;10.33;;;;;21.58;63.86;100779.56;5113541;27;45084;-71
2022/06/05 07:06:20;;;;;;;;;12.33;7.33;;;;;21.72;63.83;100793.75;5120832;27;45196;-69
2022/06/05 07:08:46;;;;;;;;;7.33;6.33;;;;;21.81;63.31;100798.16;5120475;27;45216;-69
2022/06/05 07:11:13;;;;;;;;;8.00;7.00;;;;;21.86;63.46;100801.69;5115628;27;45270;-67
2022/06/05 07:13:39;;;;;;;;;8.00;7.00;;;;;21.68;63.51;100764.84;5113627;27;45013;-70
2022/06/05 07:16:06;;;;;;;;;6.00;6.00;;;;;21.94;63.31;100800.63;5114768;27;46860;-68
2022/06/05 07:18:32;;;;;;;;;5.33;5.33;;;;;21.90;62.82;100784.34;5112845;27;45032;-69
2022/06/05 07:20:57;;;;;;;;;7.00;6.00;;;;;21.84;63.11;100787.19;5120454;27;45186;-70
2022/06/05 07:23:23;;;;;;;;;6.33;5.67;;;;;21.78;63.16;100775.53;5118318;27;45358;-70
2022/06/05 07:25:51;;;;;;;;;6.33;6.33;;;;;21.90;62.78;100787.06;5118041;27;45069;-69
2022/06/05 07:28:17;;;;;;;;;8.00;7.33;;;;;21.93;62.72;100777.97;5116019;27;45049;-70
2022/06/05 07:30:47;;;;;;;;;4.33;4.33;;;;;21.99;62.59;100779.66;5118735;27;46316;-70
2022/06/05 07:33:12;;;;;;;;;3.00;3.00;;;;;22.04;62.58;100781.38;5120033;27;45315;-70
2022/06/05 07:35:38;;;;;;;;;7.00;7.00;;;;;22.05;62.09;100790.41;5121188;27;45211;-69
2022/06/05 07:38:03;;;;;;;;;4.67;4.33;;;;;21.79;61.94;100745.59;5119154;27;45247;-71
2022/06/05 07:40:28;;;;;;;;;6.67;5.00;;;;;21.99;62.03;100791.47;5120849;27;46089;-71
2022/06/05 07:42:54;;;;;;;;;8.00;6.67;;;;;21.99;62.23;100790.53;5109811;27;45563;-69
2022/06/05 07:45:19;;;;;;;;;6.00;6.00;;;;;21.96;62.24;100787.88;5116748;27;45365;-71
2022/06/05 07:47:45;;;;;;;;;10.00;8.67;;;;;21.86;62.46;100776.28;5127660;27;45076;-69
2022/06/05 07:50:12;;;;;;;;;8.00;7.67;;;;;21.87;62.54;100787.13;5127245;27;45508;-70
2022/06/05 07:55:21;;;;;;;;;8.33;7.67;;;;;21.88;62.49;100793.50;5121203;27;45092;-70
2022/06/05 07:57:47;;;;;;;;;7.33;6.00;;;;;21.90;62.73;100784.34;5113915;27;45206;-71
2022/06/05 08:00:13;;;;;;;;;8.00;8.00;;;;;21.94;62.36;100793.34;5126473;27;45593;-71
2022/06/05 08:02:39;;;;;;;;;11.33;7.00;;;;;21.90;61.79;100776.19;5122970;27;45239;-72
2022/06/05 08:05:05;;;;;;;;;6.33;6.00;;;;;22.14;61.33;100798.41;5126607;27;44971;-70
2022/06/05 08:07:35;;;;;;;;;7.33;5.33;;;;;22.22;60.87;100793.69;5113494;27;45216;-69
2022/06/05 08:10:04;;;;;;;;;9.67;8.67;;;;;22.35;60.62;100801.63;5124670;27;45807;-69
2022/06/05 08:12:32;;;;;;;;;9.00;8.33;;;;;22.47;60.64;100797.72;5127468;27;45048;-68
2022/06/05 08:15:02;;;;;;;;;8.00;8.00;;;;;22.60;59.81;100802.88;5119436;27;45248;-68
2022/06/05 08:17:32;;;;;;;;;5.00;5.00;;;;;22.52;59.80;100779.47;5121417;27;45467;-70
2022/06/05 08:19:59;;;;;;;;;7.33;6.00;;;;;22.73;59.15;100806.19;5126627;27;45260;-69
2022/06/05 08:22:25;;;;;;;;;5.00;5.00;;;;;22.71;59.11;100790.84;5116865;27;45044;-68
2022/06/05 08:24:52;;;;;;;;;5.00;5.00;;;;;22.82;58.79;100807.84;5117817;27;45012;-69
2022/06/05 08:27:25;;;;;;;;;6.33;6.00;;;;;22.80;59.07;100813.31;5122291;27;44999;-70
2022/06/05 08:29:55;;;;;;;;;3.00;3.00;;;;;22.74;58.77;100802.56;5125334;27;45407;-72
2022/06/05 08:32:22;;;;;;;;;7.00;7.00;;;;;22.78;58.68;100807.00;5122695;27;45025;-68
2022/06/05 08:34:47;;;;;;;;;7.33;6.67;;;;;22.72;58.62;100801.72;5114005;27;45065;-71
2022/06/05 08:43:10;;;;;;;;;6.00;6.00;;;;;22.65;59.10;100821.81;5129321;27;45716;-72
2022/06/05 08:46:16;;;;;;;;;8.00;6.33;;;;;22.55;59.47;100837.47;5099308;27;44991;-70
2022/06/05 08:48:49;;;;;;;;;2.67;2.67;;;;;22.48;59.72;100822.19;5096933;27;45130;-70
2022/06/05 08:51:22;;;;;;;;;5.33;3.33;;;;;22.54;59.53;100832.09;5114656;27;44961;-68
2022/06/05 08:54:05;;;;;;;;;5.00;5.00;;;;;22.62;59.44;100836.41;5111222;27;45033;-69
2022/06/05 08:56:55;;;;;;;;;10.33;7.00;;;;;22.53;59.39;100809.38;5113717;27;45472;-70
2022/06/05 08:59:30;;;;;;;;;9.33;8.00;;;;;22.67;59.13;100844.50;5126679;27;44977;-69
2022/06/05 09:02:18;;;;;;;;;6.00;5.00;;;;;22.55;59.53;100833.84;5133007;27;45058;-70
2022/06/05 09:05:00;;;;;;;;;4.00;4.00;;;;;22.48;60.16;100827.66;5125862;27;45365;-71
2022/06/05 09:07:42;;;;;;;;;4.00;4.00;;;;;22.45;60.47;100838.59;5112481;27;45282;-71
2022/06/05 09:10:36;;;;;;;;;5.33;4.67;;;;;22.43;60.60;100830.47;5124104;27;45335;-70
2022/06/05 09:13:10;;;;;;;;;6.00;6.00;;;;;22.40;60.61;100816.91;5106262;27;45182;-69
2022/06/05 09:15:42;;;;;;;;;6.67;6.00;;;;;22.38;60.71;100802.44;5113793;27;45473;-70
2022/06/05 09:18:15;;;;;;;;;7.00;4.67;;;;;22.55;60.43;100836.59;5132117;27;45514;-70
2022/06/05 09:20:40;;;;;;;;;6.00;5.00;;;;;22.51;59.99;100843.94;5120670;27;45164;-68
2022/06/05 09:23:16;;;;;;;;;12.33;11.00;;;;;22.52;60.33;100840.28;5113618;27;45171;-72
2022/06/05 09:26:02;;;;;;;;;24.00;23.00;;;;;22.52;60.51;100855.69;5126449;27;45209;-71
2022/06/05 09:28:51;;;;;;;;;18.00;13.33;;;;;22.42;60.54;100841.38;5130571;27;45183;-70
2022/06/05 09:31:57;;;;;;;;;6.67;6.67;;;;;22.42;61.07;100865.88;5119627;27;45141;-69
2022/06/05 09:34:38;;;;;;;;;7.00;7.00;;;;;22.16;61.58;100850.97;5105366;27;45794;-69
2022/06/05 09:37:24;;;;;;;;;8.00;4.00;;;;;22.23;61.97;100885.28;5113578;27;45083;-70
2022/06/05 09:39:59;;;;;;;;;5.33;5.33;;;;;22.18;62.07;100892.66;5120273;27;45193;-68
2022/06/05 09:42:46;;;;;;;;;7.00;6.00;;;;;22.17;61.95;100890.84;5132808;27;45226;-71
2022/06/05 09:45:29;;;;;;;;;4.67;4.33;;;;;22.12;62.05;100892.75;5125933;27;45756;-69
2022/06/05 09:47:57;;;;;;;;;10.00;6.00;;;;;22.11;62.38;100896.44;5113502;27;45243;-68
2022/06/05 09:50:26;;;;;;;;;7.00;7.00;;;;;22.14;62.08;100888.22;5113876;27;45122;-68
2022/06/05 09:52:52;;;;;;;;;7.00;7.00;;;;;22.17;62.07;100885.41;5108890;27;45098;-69
2022/06/05 09:55:30;;;;;;;;;7.00;7.00;;;;;22.01;61.77;100864.84;5112927;27;45224;-69
2022/06/05 09:58:33;;;;;;;;;6.00;6.00;;;;;22.25;61.75;100896.16;5108916;27;45218;-68
2022/06/05 10:01:18;;;;;;;;;7.33;6.33;;;;;22.17;61.81;100879.06;5123999;27;44986;-71
2022/06/05 10:03:43;;;;;;;;;5.67;5.67;;;;;22.08;61.71;100883.75;5120207;27;45216;-71
2022/06/05 10:06:21;;;;;;;;;7.33;7.00;;;;;22.08;61.92;100897.38;5125752;27;45360;-68
2022/06/05 10:08:52;;;;;;;;;9.67;9.33;;;;;22.04;61.96;100903.81;5112365;27;45126;-68
2022/06/05 10:11:57;;;;;;;;;11.33;10.00;;;;;21.71;62.40;100862.69;5127723;27;45058;-68
2022/06/05 10:14:40;;;;;;;;;7.00;7.00;;;;;21.87;61.99;100908.66;5119929;27;45215;-68
2022/06/05 10:17:27;;;;;;;;;6.00;5.00;;;;;21.64;62.81;100900.88;5122802;27;45869;-69
2022/06/05 10:20:11;;;;;;;;;9.33;8.67;;;;;21.79;62.87;100911.50;5113705;27;45054;-70
2022/06/05 10:22:39;;;;;;;;;8.00;8.00;;;;;21.81;62.52;100920.53;5115364;27;45356;-68
2022/06/05 10:25:35;;;;;;;;;12.00;12.00;;;;;21.89;62.38;100914.94;5113243;27;45062;-66
2022/06/05 10:28:02;;;;;;;;;13.00;8.33;;;;;21.81;61.76;100893.34;5112528;27;45729;-68
2022/06/05 10:30:35;;;;;;;;;11.00;10.33;;;;;21.61;61.45;100860.16;5119355;27;45005;-68
2022/06/05 10:33:23;;;;;;;;;10.00;10.00;;;;;21.75;61.51;100877.13;5124547;27;44932;-66
2022/06/05 10:36:26;;;;;;;;;10.00;10.00;;;;;22.03;61.02;100928.31;5125368;27;45187;-68
2022/06/05 10:39:03;;;;;;;;;12.67;9.67;;;;;22.02;60.68;100930.13;5121704;27;45515;-71
2022/06/05 10:41:59;;;;;;;;;10.67;10.67;;;;;22.06;60.80;100928.28;5112600;27;44999;-68
2022/06/05 10:44:38;;;;;;;;;8.33;8.33;;;;;22.05;60.33;100924.63;5112340;27;45134;-69
2022/06/05 10:47:32;;;;;;;;;15.00;14.00;;;;;21.99;60.61;100922.03;5126610;27;45118;-70
2022/06/05 10:50:18;;;;;;;;;10.00;8.00;;;;;21.99;60.47;100921.13;5123901;27;45629;-69
2022/06/05 10:53:00;;;;;;;;;9.00;9.00;;;;;21.92;60.68;100928.50;5112437;27;45253;-66
2022/06/05 10:55:47;;;;;;;;;15.33;15.33;;;;;21.80;60.94;100934.16;5128658;27;45096;-68
2022/06/05 10:58:22;;;;;;;;;10.67;9.00;;;;;21.79;60.65;100935.09;5118418;27;44997;-70
2022/06/05 11:00:50;;;;;;;;;12.33;10.67;;;;;21.79;60.65;100944.13;5115682;27;45140;-68
2022/06/05 11:03:24;;;;;;;;;15.00;15.00;;;;;21.74;60.91;100929.72;5115802;27;45147;-72
2022/06/05 11:06:18;;;;;;;;;7.33;7.33;;;;;21.82;60.53;100943.19;5115765;27;45411;-70
2022/06/05 11:09:08;;;;;;;;;13.00;9.67;;;;;21.80;60.68;100940.50;5124988;27;45405;-71
2022/06/05 11:14:33;;;;;;;;;13.67;12.67;;;;;21.99;60.17;100932.00;5115717;27;45127;-69
2022/06/05 11:17:20;;;;;;;;;12.67;11.33;;;;;21.99;60.20;100942.88;5120071;27;44950;-72
2022/06/05 11:20:09;;;;;;;;;8.67;8.33;;;;;21.81;60.17;100935.94;5116428;27;44993;-71
2022/06/05 11:22:39;;;;;;;;;14.00;12.67;;;;;21.80;60.64;100935.06;5128564;27;45645;-69
2022/06/05 11:25:22;;;;;;;;;16.33;11.67;;;;;21.80;60.67;100948.66;5124376;27;45834;-71
2022/06/05 11:28:15;;;;;;;;;13.33;13.00;;;;;21.79;60.74;100948.69;5125550;27;45273;-69
2022/06/05 11:30:53;;;;;;;;;14.67;11.33;;;;;21.59;60.89;100911.84;5118192;27;45209;-69
2022/06/05 11:33:23;;;;;;;;;13.33;12.67;;;;;21.71;61.23;100943.34;5114800;27;45133;-72
2022/06/05 11:35:57;;;;;;;;;17.67;15.67;;;;;21.68;61.40;100944.31;5114364;27;44969;-69
2022/06/05 11:38:42;;;;;;;;;15.67;13.67;;;;;21.52;61.43;100937.34;5114665;27;45051;-71
2022/06/05 11:41:25;;;;;;;;;12.33;11.00;;;;;21.58;61.35;100958.06;5105908;27;45129;-70
2022/06/05 11:44:14;;;;;;;;;15.00;13.67;;;;;21.51;61.48;100954.56;5107528;27;45269;-71
2022/06/05 11:47:02;;;;;;;;;13.67;13.67;;;;;21.54;61.29;100943.63;5114414;27;45106;-72
2022/06/05 11:49:49;;;;;;;;;16.33;14.00;;;;;21.61;61.40;100960.75;5093201;27;45250;-68
2022/06/05 11:52:26;;;;;;;;;12.00;12.00;;;;;21.48;61.44;100952.81;5103009;27;45268;-70
2022/06/05 11:55:17;;;;;;;;;11.00;9.67;;;;;21.56;61.39;100978.97;5102615;27;45882;-70
2022/06/05 11:57:56;;;;;;;;;17.33;14.67;;;;;21.48;61.57;100984.50;5106887;27;45063;-69